sensor_id;sensor_type;location;lat;lon;timestamp;temperature;humidity
13405;DHT22;6773;51.192;7.024;2023-02-02T00:02:04;6.90;99.90
13405;DHT22;6773;51.192;7.024;2023-02-02T00:04:33;6.90;99.90
13405;DHT22;6773;51.192;7.024;2023-02-02T00:06:59;7.00;99.90
13405;DHT22;6773;51.192;7.024;2023-02-02T00:09:29;6.90;99.90
13405;DHT22;6773;51.192;7.024;2023-02-02T00:11:56;6.90;99.90
13405;DHT22;6773;51.192;7.024;2023-02-02T00:14:21;6.90;99.90
13405;DHT22;6773;51.192;7.024;2023-02-02T00:16:52;6.90;99.90
13405;DHT22;6773;51.192;7.024;2023-02-02T00:19:18;6.90;99.90
13405;DHT22;6773;51.192;7.024;2023-02-02T00:24:14;6.90;99.90
13405;DHT22;6773;51.192;7.024;2023-02-02T00:26:43;6.80;99.90
13405;DHT22;6773;51.192;7.024;2023-02-02T00:29:15;6.80;99.90
13405;DHT22;6773;51.192;7.024;2023-02-02T00:31:41;6.90;99.90
13405;DHT22;6773;51.192;7.024;2023-02-02T00:34:08;6.80;99.90
13405;DHT22;6773;51.192;7.024;2023-02-02T00:36:34;6.80;99.90
13405;DHT22;6773;51.192;7.024;2023-02-02T00:38:59;6.80;99.90
13405;DHT22;6773;51.192;7.024;2023-02-02T00:43:51;6.70;99.90
13405;DHT22;6773;51.192;7.024;2023-02-02T00:46:39;6.70;99.90
13405;DHT22;6773;51.192;7.024;2023-02-02T00:49:05;6.70;99.90
13405;DHT22;6773;51.192;7.024;2023-02-02T00:53:56;6.70;99.90
13405;DHT22;6773;51.192;7.024;2023-02-02T00:56:22;6.70;99.90
13405;DHT22;6773;51.192;7.024;2023-02-02T01:01:15;6.70;99.90
13405;DHT22;6773;51.192;7.024;2023-02-02T01:03:41;6.70;99.90
13405;DHT22;6773;51.192;7.024;2023-02-02T01:08:33;6.60;99.90
13405;DHT22;6773;51.192;7.024;2023-02-02T01:10:59;6.60;99.90
13405;DHT22;6773;51.192;7.024;2023-02-02T01:13:24;6.70;99.90
13405;DHT22;6773;51.192;7.024;2023-02-02T01:15:55;6.70;99.90
13405;DHT22;6773;51.192;7.024;2023-02-02T01:20:46;6.70;99.90
13405;DHT22;6773;51.192;7.024;2023-02-02T01:25:38;6.70;99.90
13405;DHT22;6773;51.192;7.024;2023-02-02T01:28:04;6.70;99.90
13405;DHT22;6773;51.192;7.024;2023-02-02T01:32:56;6.70;99.90
13405;DHT22;6773;51.192;7.024;2023-02-02T01:37:47;6.70;99.90
13405;DHT22;6773;51.192;7.024;2023-02-02T01:40:13;6.70;99.90
13405;DHT22;6773;51.192;7.024;2023-02-02T01:47:51;6.70;99.90
13405;DHT22;6773;51.192;7.024;2023-02-02T01:50:20;6.70;99.90
13405;DHT22;6773;51.192;7.024;2023-02-02T01:52:49;6.70;99.90
13405;DHT22;6773;51.192;7.024;2023-02-02T01:55:19;6.80;99.90
13405;DHT22;6773;51.192;7.024;2023-02-02T01:57:54;6.70;99.90
13405;DHT22;6773;51.192;7.024;2023-02-02T02:00:22;6.70;99.90
13405;DHT22;6773;51.192;7.024;2023-02-02T02:03:03;6.70;99.90
13405;DHT22;6773;51.192;7.024;2023-02-02T02:05:32;6.70;99.90
13405;DHT22;6773;51.192;7.024;2023-02-02T02:08:26;6.70;99.90
13405;DHT22;6773;51.192;7.024;2023-02-02T02:10:53;6.70;99.90
13405;DHT22;6773;51.192;7.024;2023-02-02T02:13:21;6.70;99.90
13405;DHT22;6773;51.192;7.024;2023-02-02T02:16:21;6.70;99.90
13405;DHT22;6773;51.192;7.024;2023-02-02T02:18:56;6.70;99.90
13405;DHT22;6773;51.192;7.024;2023-02-02T02:21:38;6.70;99.90
13405;DHT22;6773;51.192;7.024;2023-02-02T02:36:19;6.50;99.90
13405;DHT22;6773;51.192;7.024;2023-02-02T02:38:53;6.50;99.90
13405;DHT22;6773;51.192;7.024;2023-02-02T02:41:27;6.50;99.90
13405;DHT22;6773;51.192;7.024;2023-02-02T02:43:59;6.40;99.90
13405;DHT22;6773;51.192;7.024;2023-02-02T02:46:26;6.40;99.90
13405;DHT22;6773;51.192;7.024;2023-02-02T02:48:57;6.40;99.90
13405;DHT22;6773;51.192;7.024;2023-02-02T02:51:51;6.40;99.90
13405;DHT22;6773;51.192;7.024;2023-02-02T03:08:23;6.30;99.90
13405;DHT22;6773;51.192;7.024;2023-02-02T03:10:49;6.30;99.90
13405;DHT22;6773;51.192;7.024;2023-02-02T03:13:16;6.30;99.90
13405;DHT22;6773;51.192;7.024;2023-02-02T03:15:42;4.50;99.90
13405;DHT22;6773;51.192;7.024;2023-02-02T03:18:08;6.30;99.90
13405;DHT22;6773;51.192;7.024;2023-02-02T03:20:35;6.20;99.90
13405;DHT22;6773;51.192;7.024;2023-02-02T03:23:00;6.30;99.90
13405;DHT22;6773;51.192;7.024;2023-02-02T03:25:26;6.30;99.90
13405;DHT22;6773;51.192;7.024;2023-02-02T03:27:52;6.30;99.90
13405;DHT22;6773;51.192;7.024;2023-02-02T03:32:44;6.30;99.90
13405;DHT22;6773;51.192;7.024;2023-02-02T03:35:10;6.30;99.90
13405;DHT22;6773;51.192;7.024;2023-02-02T03:47:20;6.30;99.90
13405;DHT22;6773;51.192;7.024;2023-02-02T03:52:12;6.30;99.90
13405;DHT22;6773;51.192;7.024;2023-02-02T03:54:37;6.30;99.90
13405;DHT22;6773;51.192;7.024;2023-02-02T03:59:29;6.30;99.90
13405;DHT22;6773;51.192;7.024;2023-02-02T04:04:20;6.30;99.90
13405;DHT22;6773;51.192;7.024;2023-02-02T04:06:46;6.30;99.90
13405;DHT22;6773;51.192;7.024;2023-02-02T04:09:12;6.30;99.90
13405;DHT22;6773;51.192;7.024;2023-02-02T04:14:03;6.30;99.90
13405;DHT22;6773;51.192;7.024;2023-02-02T04:18:59;6.20;99.90
13405;DHT22;6773;51.192;7.024;2023-02-02T04:21:24;6.20;99.90
13405;DHT22;6773;51.192;7.024;2023-02-02T04:23:50;6.20;99.90
13405;DHT22;6773;51.192;7.024;2023-02-02T04:26:16;6.20;99.90
13405;DHT22;6773;51.192;7.024;2023-02-02T04:28:41;6.20;99.90
13405;DHT22;6773;51.192;7.024;2023-02-02T04:33:33;6.30;99.90
13405;DHT22;6773;51.192;7.024;2023-02-02T04:35:59;6.20;99.90
13405;DHT22;6773;51.192;7.024;2023-02-02T04:38:25;6.20;99.90
13405;DHT22;6773;51.192;7.024;2023-02-02T04:40:51;6.20;99.90
13405;DHT22;6773;51.192;7.024;2023-02-02T04:43:16;6.30;99.90
13405;DHT22;6773;51.192;7.024;2023-02-02T04:45:42;6.30;99.90
13405;DHT22;6773;51.192;7.024;2023-02-02T04:48:08;7.30;99.90
13405;DHT22;6773;51.192;7.024;2023-02-02T04:50:34;6.30;99.90
13405;DHT22;6773;51.192;7.024;2023-02-02T04:52:59;6.30;99.90
13405;DHT22;6773;51.192;7.024;2023-02-02T04:55:25;6.30;99.90
13405;DHT22;6773;51.192;7.024;2023-02-02T04:57:50;6.30;99.90
13405;DHT22;6773;51.192;7.024;2023-02-02T05:02:42;6.30;99.90
13405;DHT22;6773;51.192;7.024;2023-02-02T05:05:11;6.30;99.90
13405;DHT22;6773;51.192;7.024;2023-02-02T05:07:37;6.30;99.90
13405;DHT22;6773;51.192;7.024;2023-02-02T05:10:05;6.30;99.90
13405;DHT22;6773;51.192;7.024;2023-02-02T05:14:57;6.20;99.90
13405;DHT22;6773;51.192;7.024;2023-02-02T05:19:51;6.30;99.90
13405;DHT22;6773;51.192;7.024;2023-02-02T05:22:16;6.30;99.90
13405;DHT22;6773;51.192;7.024;2023-02-02T05:24:42;6.30;99.90
13405;DHT22;6773;51.192;7.024;2023-02-02T05:27:08;6.30;99.90
13405;DHT22;6773;51.192;7.024;2023-02-02T05:32:09;6.30;99.90
13405;DHT22;6773;51.192;7.024;2023-02-02T05:37:01;6.30;99.90
13405;DHT22;6773;51.192;7.024;2023-02-02T05:39:26;6.20;99.90
13405;DHT22;6773;51.192;7.024;2023-02-02T05:41:52;6.20;99.90
13405;DHT22;6773;51.192;7.024;2023-02-02T05:44:17;6.20;99.90
13405;DHT22;6773;51.192;7.024;2023-02-02T05:49:13;6.20;99.90
13405;DHT22;6773;51.192;7.024;2023-02-02T05:51:51;6.20;99.90
13405;DHT22;6773;51.192;7.024;2023-02-02T05:54:17;6.20;99.90
13405;DHT22;6773;51.192;7.024;2023-02-02T05:56:49;6.20;99.90
13405;DHT22;6773;51.192;7.024;2023-02-02T05:59:15;6.20;99.90
13405;DHT22;6773;51.192;7.024;2023-02-02T06:01:42;6.20;99.90
13405;DHT22;6773;51.192;7.024;2023-02-02T06:06:34;6.20;99.90
13405;DHT22;6773;51.192;7.024;2023-02-02T06:09:00;6.20;99.90
13405;DHT22;6773;51.192;7.024;2023-02-02T06:11:26;6.30;99.90
13405;DHT22;6773;51.192;7.024;2023-02-02T06:13:52;6.20;99.90
13405;DHT22;6773;51.192;7.024;2023-02-02T06:16:17;6.30;99.90
13405;DHT22;6773;51.192;7.024;2023-02-02T06:18:43;6.20;99.90
13405;DHT22;6773;51.192;7.024;2023-02-02T06:21:09;6.20;99.90
13405;DHT22;6773;51.192;7.024;2023-02-02T06:23:35;6.30;99.90
13405;DHT22;6773;51.192;7.024;2023-02-02T06:26:01;6.30;99.90
13405;DHT22;6773;51.192;7.024;2023-02-02T06:28:31;6.30;99.90
13405;DHT22;6773;51.192;7.024;2023-02-02T06:31:03;6.30;99.90
13405;DHT22;6773;51.192;7.024;2023-02-02T06:35:58;6.30;99.90
13405;DHT22;6773;51.192;7.024;2023-02-02T06:38:25;6.30;99.90
13405;DHT22;6773;51.192;7.024;2023-02-02T06:43:16;6.40;99.90
13405;DHT22;6773;51.192;7.024;2023-02-02T06:45:43;6.40;99.90
13405;DHT22;6773;51.192;7.024;2023-02-02T06:48:09;6.30;99.90
13405;DHT22;6773;51.192;7.024;2023-02-02T06:50:38;6.40;99.90
13405;DHT22;6773;51.192;7.024;2023-02-02T06:53:04;6.30;99.90
13405;DHT22;6773;51.192;7.024;2023-02-02T06:55:30;6.30;99.90
13405;DHT22;6773;51.192;7.024;2023-02-02T06:57:57;6.40;99.90
13405;DHT22;6773;51.192;7.024;2023-02-02T07:02:49;6.30;99.90
13405;DHT22;6773;51.192;7.024;2023-02-02T07:05:14;6.30;99.90
13405;DHT22;6773;51.192;7.024;2023-02-02T07:07:40;6.30;99.90
13405;DHT22;6773;51.192;7.024;2023-02-02T07:10:06;6.40;99.90
13405;DHT22;6773;51.192;7.024;2023-02-02T07:14:57;6.40;99.90
13405;DHT22;6773;51.192;7.024;2023-02-02T07:17:24;6.30;99.90
13405;DHT22;6773;51.192;7.024;2023-02-02T07:19:49;6.30;99.90
13405;DHT22;6773;51.192;7.024;2023-02-02T07:22:15;6.30;99.90
13405;DHT22;6773;51.192;7.024;2023-02-02T07:24:41;6.30;99.90
13405;DHT22;6773;51.192;7.024;2023-02-02T07:29:32;6.30;99.90
13405;DHT22;6773;51.192;7.024;2023-02-02T07:31:58;6.30;99.90
13405;DHT22;6773;51.192;7.024;2023-02-02T07:34:23;6.30;99.90
13405;DHT22;6773;51.192;7.024;2023-02-02T07:36:49;6.30;99.90
13405;DHT22;6773;51.192;7.024;2023-02-02T07:41:41;6.40;99.90
13405;DHT22;6773;51.192;7.024;2023-02-02T07:44:15;6.40;99.90
13405;DHT22;6773;51.192;7.024;2023-02-02T07:46:44;6.40;99.90
13405;DHT22;6773;51.192;7.024;2023-02-02T07:49:15;6.40;99.90
13405;DHT22;6773;51.192;7.024;2023-02-02T07:54:08;6.40;99.90
13405;DHT22;6773;51.192;7.024;2023-02-02T07:59:00;6.40;99.90
13405;DHT22;6773;51.192;7.024;2023-02-02T08:01:27;6.30;99.90
13405;DHT22;6773;51.192;7.024;2023-02-02T08:03:54;6.30;99.90
13405;DHT22;6773;51.192;7.024;2023-02-02T08:06:23;6.40;99.90
13405;DHT22;6773;51.192;7.024;2023-02-02T08:08:49;6.30;99.90
13405;DHT22;6773;51.192;7.024;2023-02-02T08:11:17;6.30;99.90
13405;DHT22;6773;51.192;7.024;2023-02-02T08:16:10;6.30;99.90
13405;DHT22;6773;51.192;7.024;2023-02-02T08:18:37;6.30;99.90
13405;DHT22;6773;51.192;7.024;2023-02-02T08:21:04;6.40;99.90
13405;DHT22;6773;51.192;7.024;2023-02-02T08:26:10;6.30;99.90
13405;DHT22;6773;51.192;7.024;2023-02-02T08:28:37;6.30;99.90
13405;DHT22;6773;51.192;7.024;2023-02-02T08:31:14;6.30;99.90
13405;DHT22;6773;51.192;7.024;2023-02-02T08:33:41;6.30;99.90
13405;DHT22;6773;51.192;7.024;2023-02-02T08:36:13;6.20;99.90
13405;DHT22;6773;51.192;7.024;2023-02-02T08:38:40;6.30;99.90
13405;DHT22;6773;51.192;7.024;2023-02-02T08:41:07;6.30;99.90
13405;DHT22;6773;51.192;7.024;2023-02-02T08:43:34;6.30;99.90
13405;DHT22;6773;51.192;7.024;2023-02-02T08:48:26;6.30;99.90
13405;DHT22;6773;51.192;7.024;2023-02-02T08:50:56;6.30;99.90
13405;DHT22;6773;51.192;7.024;2023-02-02T08:53:22;6.30;99.90
13405;DHT22;6773;51.192;7.024;2023-02-02T08:55:48;6.30;99.90
13405;DHT22;6773;51.192;7.024;2023-02-02T08:58:21;6.40;99.90
13405;DHT22;6773;51.192;7.024;2023-02-02T09:03:12;6.40;99.90
13405;DHT22;6773;51.192;7.024;2023-02-02T09:10:30;6.40;99.90
13405;DHT22;6773;51.192;7.024;2023-02-02T09:17:48;6.40;99.90
13405;DHT22;6773;51.192;7.024;2023-02-02T09:22:40;6.40;99.90
13405;DHT22;6773;51.192;7.024;2023-02-02T09:25:05;6.40;99.90
13405;DHT22;6773;51.192;7.024;2023-02-02T09:27:36;6.40;99.90
13405;DHT22;6773;51.192;7.024;2023-02-02T09:30:01;6.50;99.90
13405;DHT22;6773;51.192;7.024;2023-02-02T09:32:27;6.50;99.90
13405;DHT22;6773;51.192;7.024;2023-02-02T09:37:19;6.40;99.90
13405;DHT22;6773;51.192;7.024;2023-02-02T09:48:14;6.40;99.90
13405;DHT22;6773;51.192;7.024;2023-02-02T09:50:54;6.40;99.90
13405;DHT22;6773;51.192;7.024;2023-02-02T09:53:27;6.40;99.90
13405;DHT22;6773;51.192;7.024;2023-02-02T09:55:59;6.40;99.90
13405;DHT22;6773;51.192;7.024;2023-02-02T09:58:31;6.40;99.90
13405;DHT22;6773;51.192;7.024;2023-02-02T10:01:03;6.40;99.90
13405;DHT22;6773;51.192;7.024;2023-02-02T10:06:32;6.40;99.90
13405;DHT22;6773;51.192;7.024;2023-02-02T10:14:37;6.40;99.90
13405;DHT22;6773;51.192;7.024;2023-02-02T10:25:56;6.50;99.90
13405;DHT22;6773;51.192;7.024;2023-02-02T10:31:41;6.50;99.90
13405;DHT22;6773;51.192;7.024;2023-02-02T10:34:21;6.50;99.90
13405;DHT22;6773;51.192;7.024;2023-02-02T10:37:16;6.50;99.90
13405;DHT22;6773;51.192;7.024;2023-02-02T10:39:57;6.50;99.90
13405;DHT22;6773;51.192;7.024;2023-02-02T10:47:56;6.50;99.90
13405;DHT22;6773;51.192;7.024;2023-02-02T10:50:22;6.60;99.90
13405;DHT22;6773;51.192;7.024;2023-02-02T10:52:52;6.50;99.90
13405;DHT22;6773;51.192;7.024;2023-02-02T10:55:31;6.60;99.90
13405;DHT22;6773;51.192;7.024;2023-02-02T11:00:53;6.70;99.90
13405;DHT22;6773;51.192;7.024;2023-02-02T11:03:26;6.70;99.90
13405;DHT22;6773;51.192;7.024;2023-02-02T11:05:52;6.60;99.90
13405;DHT22;6773;51.192;7.024;2023-02-02T11:08:40;6.70;99.90
13405;DHT22;6773;51.192;7.024;2023-02-02T11:11:20;6.60;99.90
13405;DHT22;6773;51.192;7.024;2023-02-02T11:16:36;6.70;99.90
13405;DHT22;6773;51.192;7.024;2023-02-02T11:19:21;6.70;99.90
13405;DHT22;6773;51.192;7.024;2023-02-02T11:21:50;6.80;99.90
13405;DHT22;6773;51.192;7.024;2023-02-02T11:26:49;6.80;99.90
13405;DHT22;6773;51.192;7.024;2023-02-02T11:32:35;6.70;99.90
13405;DHT22;6773;51.192;7.024;2023-02-02T11:35:17;6.70;99.90
13405;DHT22;6773;51.192;7.024;2023-02-02T11:42:54;6.80;99.90
13405;DHT22;6773;51.192;7.024;2023-02-02T11:45:35;6.80;99.90
13405;DHT22;6773;51.192;7.024;2023-02-02T11:48:16;6.80;99.90
13405;DHT22;6773;51.192;7.024;2023-02-02T11:50:54;6.80;99.90
13405;DHT22;6773;51.192;7.024;2023-02-02T11:53:24;6.80;99.90
13405;DHT22;6773;51.192;7.024;2023-02-02T12:00:47;6.80;99.90
13405;DHT22;6773;51.192;7.024;2023-02-02T12:03:32;6.80;99.90
13405;DHT22;6773;51.192;7.024;2023-02-02T12:05:57;6.90;99.90
13405;DHT22;6773;51.192;7.024;2023-02-02T12:08:23;6.90;99.90
13405;DHT22;6773;51.192;7.024;2023-02-02T12:10:59;6.90;99.90
13405;DHT22;6773;51.192;7.024;2023-02-02T12:26:30;6.90;99.90
13405;DHT22;6773;51.192;7.024;2023-02-02T12:29:06;6.90;99.90
13405;DHT22;6773;51.192;7.024;2023-02-02T12:37:11;7.00;99.90
13405;DHT22;6773;51.192;7.024;2023-02-02T12:47:28;7.10;99.90
13405;DHT22;6773;51.192;7.024;2023-02-02T12:50:03;7.10;99.90
13405;DHT22;6773;51.192;7.024;2023-02-02T13:00:32;7.20;99.90
13405;DHT22;6773;51.192;7.024;2023-02-02T13:03:28;7.20;99.90
13405;DHT22;6773;51.192;7.024;2023-02-02T13:08:35;7.20;99.90
13405;DHT22;6773;51.192;7.024;2023-02-02T13:11:08;7.20;99.90
13405;DHT22;6773;51.192;7.024;2023-02-02T13:16:50;7.30;99.90
13405;DHT22;6773;51.192;7.024;2023-02-02T13:19:37;7.30;99.90
13405;DHT22;6773;51.192;7.024;2023-02-02T13:22:07;7.30;99.90
13405;DHT22;6773;51.192;7.024;2023-02-02T13:24:37;7.30;99.90
13405;DHT22;6773;51.192;7.024;2023-02-02T13:27:11;7.30;99.90
13405;DHT22;6773;51.192;7.024;2023-02-02T13:29:55;7.30;99.90
13405;DHT22;6773;51.192;7.024;2023-02-02T13:32:37;7.30;99.90
13405;DHT22;6773;51.192;7.024;2023-02-02T13:35:17;7.30;99.90
13405;DHT22;6773;51.192;7.024;2023-02-02T13:37:46;7.10;99.90
13405;DHT22;6773;51.192;7.024;2023-02-02T13:40:46;7.30;99.90
13405;DHT22;6773;51.192;7.024;2023-02-02T13:43:21;7.30;99.90
13405;DHT22;6773;51.192;7.024;2023-02-02T13:49:14;7.20;99.90
13405;DHT22;6773;51.192;7.024;2023-02-02T14:00:11;7.20;99.90
13405;DHT22;6773;51.192;7.024;2023-02-02T14:05:07;7.10;99.90
13405;DHT22;6773;51.192;7.024;2023-02-02T14:07:43;7.10;99.90
13405;DHT22;6773;51.192;7.024;2023-02-02T14:10:29;7.10;99.90
13405;DHT22;6773;51.192;7.024;2023-02-02T14:13:12;7.10;99.90
13405;DHT22;6773;51.192;7.024;2023-02-02T14:16:00;7.00;99.90
13405;DHT22;6773;51.192;7.024;2023-02-02T14:34:51;7.00;99.90
13405;DHT22;6773;51.192;7.024;2023-02-02T14:45:37;7.00;99.90
13405;DHT22;6773;51.192;7.024;2023-02-02T14:48:25;7.00;99.90
13405;DHT22;6773;51.192;7.024;2023-02-02T14:50:55;7.00;99.90
13405;DHT22;6773;51.192;7.024;2023-02-02T14:53:34;7.00;99.90
13405;DHT22;6773;51.192;7.024;2023-02-02T14:56:09;7.00;99.90
13405;DHT22;6773;51.192;7.024;2023-02-02T15:01:06;7.10;99.90
13405;DHT22;6773;51.192;7.024;2023-02-02T15:06:24;7.10;99.90
13405;DHT22;6773;51.192;7.024;2023-02-02T15:33:49;7.30;99.90
13405;DHT22;6773;51.192;7.024;2023-02-02T15:36:25;7.30;99.90
13405;DHT22;6773;51.192;7.024;2023-02-02T15:38:54;7.30;99.90
13405;DHT22;6773;51.192;7.024;2023-02-02T15:41:33;7.20;99.90
13405;DHT22;6773;51.192;7.024;2023-02-02T15:46:30;7.20;99.90
13405;DHT22;6773;51.192;7.024;2023-02-02T15:51:52;7.20;99.90
13405;DHT22;6773;51.192;7.024;2023-02-02T15:56:47;7.20;99.90
13405;DHT22;6773;51.192;7.024;2023-02-02T15:59:21;7.20;99.90
13405;DHT22;6773;51.192;7.024;2023-02-02T16:04:25;7.20;99.90
13405;DHT22;6773;51.192;7.024;2023-02-02T16:06:54;7.20;99.90
13405;DHT22;6773;51.192;7.024;2023-02-02T16:09:28;7.20;99.90
13405;DHT22;6773;51.192;7.024;2023-02-02T16:11:57;7.20;99.90
13405;DHT22;6773;51.192;7.024;2023-02-02T16:14:22;7.10;99.90
13405;DHT22;6773;51.192;7.024;2023-02-02T16:16:48;7.10;99.90
13405;DHT22;6773;51.192;7.024;2023-02-02T16:21:49;7.00;99.90
13405;DHT22;6773;51.192;7.024;2023-02-02T16:24:22;7.00;99.90
13405;DHT22;6773;51.192;7.024;2023-02-02T16:26:52;7.00;99.90
13405;DHT22;6773;51.192;7.024;2023-02-02T16:29:18;7.00;99.90
13405;DHT22;6773;51.192;7.024;2023-02-02T16:31:46;7.10;99.90
13405;DHT22;6773;51.192;7.024;2023-02-02T16:37:15;7.00;99.90
13405;DHT22;6773;51.192;7.024;2023-02-02T16:39:42;7.00;99.90
13405;DHT22;6773;51.192;7.024;2023-02-02T16:42:25;7.00;99.90
13405;DHT22;6773;51.192;7.024;2023-02-02T16:52:20;6.90;99.90
13405;DHT22;6773;51.192;7.024;2023-02-02T16:54:55;7.00;99.90
13405;DHT22;6773;51.192;7.024;2023-02-02T16:57:31;7.00;99.90
13405;DHT22;6773;51.192;7.024;2023-02-02T17:00:01;7.00;99.90
13405;DHT22;6773;51.192;7.024;2023-02-02T17:02:37;7.00;99.90
13405;DHT22;6773;51.192;7.024;2023-02-02T17:05:15;7.00;99.90
13405;DHT22;6773;51.192;7.024;2023-02-02T17:07:49;7.00;99.90
13405;DHT22;6773;51.192;7.024;2023-02-02T17:10:27;7.00;99.90
13405;DHT22;6773;51.192;7.024;2023-02-02T17:12:59;6.90;99.90
13405;DHT22;6773;51.192;7.024;2023-02-02T17:15:26;7.00;99.90
13405;DHT22;6773;51.192;7.024;2023-02-02T17:17:53;6.90;99.90
13405;DHT22;6773;51.192;7.024;2023-02-02T17:20:19;7.00;99.90
13405;DHT22;6773;51.192;7.024;2023-02-02T17:22:55;7.00;99.90
13405;DHT22;6773;51.192;7.024;2023-02-02T17:25:41;6.90;99.90
13405;DHT22;6773;51.192;7.024;2023-02-02T17:28:12;7.00;99.90
13405;DHT22;6773;51.192;7.024;2023-02-02T17:30:41;7.00;99.90
13405;DHT22;6773;51.192;7.024;2023-02-02T17:33:15;7.00;99.90
13405;DHT22;6773;51.192;7.024;2023-02-02T17:35:42;7.00;99.90
13405;DHT22;6773;51.192;7.024;2023-02-02T17:38:07;6.90;99.90
13405;DHT22;6773;51.192;7.024;2023-02-02T17:42:59;7.00;99.90
13405;DHT22;6773;51.192;7.024;2023-02-02T17:45:31;7.00;99.90
13405;DHT22;6773;51.192;7.024;2023-02-02T17:52:50;7.00;99.90
13405;DHT22;6773;51.192;7.024;2023-02-02T17:55:40;7.00;99.90
13405;DHT22;6773;51.192;7.024;2023-02-02T17:58:07;7.00;99.90
13405;DHT22;6773;51.192;7.024;2023-02-02T18:00:33;7.10;99.90
13405;DHT22;6773;51.192;7.024;2023-02-02T18:03:12;7.00;99.90
13405;DHT22;6773;51.192;7.024;2023-02-02T18:05:38;7.00;99.90
13405;DHT22;6773;51.192;7.024;2023-02-02T18:08:04;6.90;99.90
13405;DHT22;6773;51.192;7.024;2023-02-02T18:10:30;7.00;99.90
13405;DHT22;6773;51.192;7.024;2023-02-02T18:12:56;7.00;99.90
13405;DHT22;6773;51.192;7.024;2023-02-02T18:15:22;7.10;99.90
13405;DHT22;6773;51.192;7.024;2023-02-02T18:17:48;7.10;99.90
13405;DHT22;6773;51.192;7.024;2023-02-02T18:20:14;7.10;99.90
13405;DHT22;6773;51.192;7.024;2023-02-02T18:22:41;7.00;99.90
13405;DHT22;6773;51.192;7.024;2023-02-02T18:25:11;7.10;99.90
13405;DHT22;6773;51.192;7.024;2023-02-02T18:27:37;7.10;99.90
13405;DHT22;6773;51.192;7.024;2023-02-02T18:30:03;7.10;99.90
13405;DHT22;6773;51.192;7.024;2023-02-02T18:32:29;7.10;99.90
13405;DHT22;6773;51.192;7.024;2023-02-02T18:34:54;7.10;99.90
13405;DHT22;6773;51.192;7.024;2023-02-02T18:37:21;7.10;99.90
13405;DHT22;6773;51.192;7.024;2023-02-02T18:42:13;7.10;99.90
13405;DHT22;6773;51.192;7.024;2023-02-02T18:44:39;7.00;99.90
13405;DHT22;6773;51.192;7.024;2023-02-02T18:47:05;7.10;99.90
13405;DHT22;6773;51.192;7.024;2023-02-02T18:49:30;7.10;99.90
13405;DHT22;6773;51.192;7.024;2023-02-02T18:51:56;7.10;99.90
13405;DHT22;6773;51.192;7.024;2023-02-02T18:56:48;7.10;99.90
13405;DHT22;6773;51.192;7.024;2023-02-02T19:01:40;7.20;99.90
13405;DHT22;6773;51.192;7.024;2023-02-02T19:11:47;7.20;99.90
13405;DHT22;6773;51.192;7.024;2023-02-02T19:14:14;7.20;99.90
13405;DHT22;6773;51.192;7.024;2023-02-02T19:16:41;7.20;99.90
13405;DHT22;6773;51.192;7.024;2023-02-02T19:19:22;7.20;99.90
13405;DHT22;6773;51.192;7.024;2023-02-02T19:21:52;7.20;99.90
13405;DHT22;6773;51.192;7.024;2023-02-02T19:24:18;7.10;99.90
13405;DHT22;6773;51.192;7.024;2023-02-02T19:26:45;7.20;99.90
13405;DHT22;6773;51.192;7.024;2023-02-02T19:31:43;7.10;99.90
13405;DHT22;6773;51.192;7.024;2023-02-02T19:34:15;7.20;99.90
13405;DHT22;6773;51.192;7.024;2023-02-02T19:36:42;7.10;99.90
13405;DHT22;6773;51.192;7.024;2023-02-02T19:39:19;7.20;99.90
13405;DHT22;6773;51.192;7.024;2023-02-02T19:44:18;7.20;99.90
13405;DHT22;6773;51.192;7.024;2023-02-02T19:46:47;7.20;99.90
13405;DHT22;6773;51.192;7.024;2023-02-02T19:49:23;7.20;99.90
13405;DHT22;6773;51.192;7.024;2023-02-02T19:51:52;7.20;99.90
13405;DHT22;6773;51.192;7.024;2023-02-02T19:56:55;7.20;99.90
13405;DHT22;6773;51.192;7.024;2023-02-02T19:59:21;7.20;99.90
13405;DHT22;6773;51.192;7.024;2023-02-02T20:01:51;7.20;99.90
13405;DHT22;6773;51.192;7.024;2023-02-02T20:04:19;7.20;99.90
13405;DHT22;6773;51.192;7.024;2023-02-02T20:06:45;7.20;99.90
13405;DHT22;6773;51.192;7.024;2023-02-02T20:09:15;7.20;99.90
13405;DHT22;6773;51.192;7.024;2023-02-02T20:11:43;7.20;99.90
13405;DHT22;6773;51.192;7.024;2023-02-02T20:16:48;7.30;99.90
13405;DHT22;6773;51.192;7.024;2023-02-02T20:19:23;7.30;99.90
13405;DHT22;6773;51.192;7.024;2023-02-02T20:21:50;7.30;99.90
13405;DHT22;6773;51.192;7.024;2023-02-02T20:24:36;7.30;99.90
13405;DHT22;6773;51.192;7.024;2023-02-02T20:27:13;7.30;99.90
13405;DHT22;6773;51.192;7.024;2023-02-02T20:29:41;7.30;99.90
13405;DHT22;6773;51.192;7.024;2023-02-02T20:34:42;7.30;99.90
13405;DHT22;6773;51.192;7.024;2023-02-02T20:42:15;7.30;99.90
13405;DHT22;6773;51.192;7.024;2023-02-02T20:49:33;7.30;99.90
13405;DHT22;6773;51.192;7.024;2023-02-02T20:52:01;7.30;99.90
13405;DHT22;6773;51.192;7.024;2023-02-02T20:54:27;7.30;99.90
13405;DHT22;6773;51.192;7.024;2023-02-02T20:56:53;7.30;99.90
13405;DHT22;6773;51.192;7.024;2023-02-02T20:59:19;7.30;99.90
13405;DHT22;6773;51.192;7.024;2023-02-02T21:01:45;7.30;99.90
13405;DHT22;6773;51.192;7.024;2023-02-02T21:04:11;7.30;99.90
13405;DHT22;6773;51.192;7.024;2023-02-02T21:06:38;7.40;99.90
13405;DHT22;6773;51.192;7.024;2023-02-02T21:09:06;7.30;99.90
13405;DHT22;6773;51.192;7.024;2023-02-02T21:11:32;7.30;99.90
13405;DHT22;6773;51.192;7.024;2023-02-02T21:13:58;7.30;99.90
13405;DHT22;6773;51.192;7.024;2023-02-02T21:16:24;7.30;99.90
13405;DHT22;6773;51.192;7.024;2023-02-02T21:21:35;7.00;99.90
13405;DHT22;6773;51.192;7.024;2023-02-02T21:24:03;7.40;99.90
13405;DHT22;6773;51.192;7.024;2023-02-02T21:26:29;7.30;99.90
13405;DHT22;6773;51.192;7.024;2023-02-02T21:28:55;7.40;99.90
13405;DHT22;6773;51.192;7.024;2023-02-02T21:31:28;7.40;99.90
13405;DHT22;6773;51.192;7.024;2023-02-02T21:33:54;7.30;99.90
13405;DHT22;6773;51.192;7.024;2023-02-02T21:41:38;7.40;99.90
13405;DHT22;6773;51.192;7.024;2023-02-02T21:44:15;7.40;99.90
13405;DHT22;6773;51.192;7.024;2023-02-02T21:46:42;7.40;99.90
13405;DHT22;6773;51.192;7.024;2023-02-02T21:49:24;7.40;99.90
13405;DHT22;6773;51.192;7.024;2023-02-02T21:51:50;7.50;99.90
13405;DHT22;6773;51.192;7.024;2023-02-02T21:54:32;7.50;99.90
13405;DHT22;6773;51.192;7.024;2023-02-02T21:57:00;7.50;99.90
13405;DHT22;6773;51.192;7.024;2023-02-02T21:59:34;7.50;99.90
13405;DHT22;6773;51.192;7.024;2023-02-02T22:04:45;7.50;99.90
13405;DHT22;6773;51.192;7.024;2023-02-02T22:07:16;7.40;99.90
13405;DHT22;6773;51.192;7.024;2023-02-02T22:09:45;7.50;99.90
13405;DHT22;6773;51.192;7.024;2023-02-02T22:12:14;7.50;99.90
13405;DHT22;6773;51.192;7.024;2023-02-02T22:14:42;7.50;99.90
13405;DHT22;6773;51.192;7.024;2023-02-02T22:17:23;7.50;99.90
13405;DHT22;6773;51.192;7.024;2023-02-02T22:20:15;7.40;99.90
13405;DHT22;6773;51.192;7.024;2023-02-02T22:22:47;7.50;99.90
13405;DHT22;6773;51.192;7.024;2023-02-02T22:27:54;7.50;99.90
13405;DHT22;6773;51.192;7.024;2023-02-02T22:30:38;7.50;99.90
13405;DHT22;6773;51.192;7.024;2023-02-02T22:33:10;7.50;99.90
13405;DHT22;6773;51.192;7.024;2023-02-02T22:35:37;7.50;99.90
13405;DHT22;6773;51.192;7.024;2023-02-02T22:38:03;7.50;99.90
13405;DHT22;6773;51.192;7.024;2023-02-02T22:40:29;7.50;99.90
13405;DHT22;6773;51.192;7.024;2023-02-02T22:42:57;7.60;99.90
13405;DHT22;6773;51.192;7.024;2023-02-02T22:45:23;7.60;99.90
13405;DHT22;6773;51.192;7.024;2023-02-02T22:47:51;7.50;99.90